sensor_id;sensor_type;location;lat;lon;timestamp;P1;durP1;ratioP1;P2;durP2;ratioP2
9334;SDS011;4706;41.844;26.082;2023-06-26T00:01:50;3.03;;;2.80;;
9334;SDS011;4706;41.844;26.082;2023-06-26T00:04:15;3.22;;;2.88;;
9334;SDS011;4706;41.844;26.082;2023-06-26T00:06:41;4.75;;;2.67;;
9334;SDS011;4706;41.844;26.082;2023-06-26T00:09:07;4.55;;;2.75;;
9334;SDS011;4706;41.844;26.082;2023-06-26T00:11:33;5.00;;;2.90;;
9334;SDS011;4706;41.844;26.082;2023-06-26T00:13:59;5.35;;;3.00;;
9334;SDS011;4706;41.844;26.082;2023-06-26T00:16:25;4.43;;;2.97;;
9334;SDS011;4706;41.844;26.082;2023-06-26T00:18:52;3.35;;;3.05;;
9334;SDS011;4706;41.844;26.082;2023-06-26T00:21:18;4.07;;;2.60;;
9334;SDS011;4706;41.844;26.082;2023-06-26T00:23:44;3.72;;;2.70;;
9334;SDS011;4706;41.844;26.082;2023-06-26T00:26:11;4.80;;;2.72;;
9334;SDS011;4706;41.844;26.082;2023-06-26T00:28:36;2.97;;;2.67;;
9334;SDS011;4706;41.844;26.082;2023-06-26T00:31:02;3.95;;;2.67;;
9334;SDS011;4706;41.844;26.082;2023-06-26T00:33:27;3.78;;;2.15;;
9334;SDS011;4706;41.844;26.082;2023-06-26T00:35:53;2.92;;;2.60;;
9334;SDS011;4706;41.844;26.082;2023-06-26T00:38:18;4.70;;;2.67;;
9334;SDS011;4706;41.844;26.082;2023-06-26T00:40:44;3.85;;;3.00;;
9334;SDS011;4706;41.844;26.082;2023-06-26T00:43:09;5.20;;;3.15;;
9334;SDS011;4706;41.844;26.082;2023-06-26T00:45:35;5.53;;;3.20;;
9334;SDS011;4706;41.844;26.082;2023-06-26T00:48:01;4.90;;;3.17;;
9334;SDS011;4706;41.844;26.082;2023-06-26T00:50:28;8.35;;;3.95;;
9334;SDS011;4706;41.844;26.082;2023-06-26T00:52:53;6.82;;;4.25;;
9334;SDS011;4706;41.844;26.082;2023-06-26T00:55:21;5.95;;;4.10;;
9334;SDS011;4706;41.844;26.082;2023-06-26T00:57:47;6.25;;;4.47;;
9334;SDS011;4706;41.844;26.082;2023-06-26T01:00:13;5.45;;;3.63;;
9334;SDS011;4706;41.844;26.082;2023-06-26T01:02:39;5.18;;;3.97;;
9334;SDS011;4706;41.844;26.082;2023-06-26T01:05:05;3.65;;;3.33;;
9334;SDS011;4706;41.844;26.082;2023-06-26T01:07:35;4.82;;;4.05;;
9334;SDS011;4706;41.844;26.082;2023-06-26T01:10:03;3.42;;;3.13;;
9334;SDS011;4706;41.844;26.082;2023-06-26T01:12:29;3.70;;;3.22;;
9334;SDS011;4706;41.844;26.082;2023-06-26T01:14:57;3.13;;;2.90;;
9334;SDS011;4706;41.844;26.082;2023-06-26T01:17:24;4.78;;;3.67;;
9334;SDS011;4706;41.844;26.082;2023-06-26T01:19:49;3.75;;;3.30;;
9334;SDS011;4706;41.844;26.082;2023-06-26T01:22:25;6.07;;;3.72;;
9334;SDS011;4706;41.844;26.082;2023-06-26T01:28:06;6.57;;;3.60;;
9334;SDS011;4706;41.844;26.082;2023-06-26T01:30:34;6.18;;;3.70;;
9334;SDS011;4706;41.844;26.082;2023-06-26T01:33:03;5.90;;;3.75;;
9334;SDS011;4706;41.844;26.082;2023-06-26T01:35:29;5.18;;;3.30;;
9334;SDS011;4706;41.844;26.082;2023-06-26T01:38:10;5.72;;;3.95;;
9334;SDS011;4706;41.844;26.082;2023-06-26T01:40:41;5.07;;;3.13;;
9334;SDS011;4706;41.844;26.082;2023-06-26T01:43:10;4.80;;;3.95;;
9334;SDS011;4706;41.844;26.082;2023-06-26T01:45:44;7.18;;;3.60;;
9334;SDS011;4706;41.844;26.082;2023-06-26T01:48:13;4.45;;;3.42;;
9334;SDS011;4706;41.844;26.082;2023-06-26T01:50:40;5.25;;;3.72;;
9334;SDS011;4706;41.844;26.082;2023-06-26T01:53:16;4.50;;;3.75;;
9334;SDS011;4706;41.844;26.082;2023-06-26T01:55:50;6.13;;;3.88;;
9334;SDS011;4706;41.844;26.082;2023-06-26T01:58:19;5.30;;;3.95;;
9334;SDS011;4706;41.844;26.082;2023-06-26T02:00:47;5.00;;;3.80;;
9334;SDS011;4706;41.844;26.082;2023-06-26T02:03:13;5.63;;;4.20;;
9334;SDS011;4706;41.844;26.082;2023-06-26T02:05:39;6.07;;;4.20;;
9334;SDS011;4706;41.844;26.082;2023-06-26T02:08:04;6.90;;;3.75;;
9334;SDS011;4706;41.844;26.082;2023-06-26T02:10:30;7.07;;;4.10;;
9334;SDS011;4706;41.844;26.082;2023-06-26T02:12:56;6.90;;;4.03;;
9334;SDS011;4706;41.844;26.082;2023-06-26T02:15:21;8.95;;;4.35;;
9334;SDS011;4706;41.844;26.082;2023-06-26T02:17:47;9.05;;;4.72;;
9334;SDS011;4706;41.844;26.082;2023-06-26T02:20:13;9.85;;;4.53;;
9334;SDS011;4706;41.844;26.082;2023-06-26T02:22:40;11.38;;;4.38;;
9334;SDS011;4706;41.844;26.082;2023-06-26T02:25:06;6.85;;;4.30;;
9334;SDS011;4706;41.844;26.082;2023-06-26T02:27:32;8.65;;;4.55;;
9334;SDS011;4706;41.844;26.082;2023-06-26T02:29:57;4.80;;;4.28;;
9334;SDS011;4706;41.844;26.082;2023-06-26T02:32:23;5.53;;;4.55;;
9334;SDS011;4706;41.844;26.082;2023-06-26T02:34:48;8.77;;;4.55;;
9334;SDS011;4706;41.844;26.082;2023-06-26T02:37:16;7.75;;;4.72;;
9334;SDS011;4706;41.844;26.082;2023-06-26T02:39:41;6.68;;;4.88;;
9334;SDS011;4706;41.844;26.082;2023-06-26T02:42:07;11.40;;;6.15;;
9334;SDS011;4706;41.844;26.082;2023-06-26T02:44:32;9.82;;;5.40;;
9334;SDS011;4706;41.844;26.082;2023-06-26T02:46:58;10.63;;;5.78;;
9334;SDS011;4706;41.844;26.082;2023-06-26T02:49:23;9.02;;;5.43;;
9334;SDS011;4706;41.844;26.082;2023-06-26T02:51:49;12.57;;;5.75;;
9334;SDS011;4706;41.844;26.082;2023-06-26T02:54:14;9.18;;;5.32;;
9334;SDS011;4706;41.844;26.082;2023-06-26T02:56:40;9.60;;;5.18;;
9334;SDS011;4706;41.844;26.082;2023-06-26T02:59:05;9.73;;;5.10;;
9334;SDS011;4706;41.844;26.082;2023-06-26T03:01:31;7.22;;;5.28;;
9334;SDS011;4706;41.844;26.082;2023-06-26T03:03:56;8.55;;;5.80;;
9334;SDS011;4706;41.844;26.082;2023-06-26T03:06:22;9.98;;;5.88;;
9334;SDS011;4706;41.844;26.082;2023-06-26T03:08:47;7.60;;;5.65;;
9334;SDS011;4706;41.844;26.082;2023-06-26T03:11:13;8.93;;;5.70;;
9334;SDS011;4706;41.844;26.082;2023-06-26T03:13:38;9.07;;;5.28;;
9334;SDS011;4706;41.844;26.082;2023-06-26T03:16:04;8.45;;;5.72;;
9334;SDS011;4706;41.844;26.082;2023-06-26T03:18:30;8.15;;;5.95;;
9334;SDS011;4706;41.844;26.082;2023-06-26T03:20:55;9.15;;;5.82;;
9334;SDS011;4706;41.844;26.082;2023-06-26T03:23:22;11.10;;;5.55;;
9334;SDS011;4706;41.844;26.082;2023-06-26T03:25:48;10.07;;;6.15;;
9334;SDS011;4706;41.844;26.082;2023-06-26T03:28:14;10.70;;;6.10;;
9334;SDS011;4706;41.844;26.082;2023-06-26T03:30:40;8.90;;;6.28;;
9334;SDS011;4706;41.844;26.082;2023-06-26T03:33:06;8.23;;;5.95;;
9334;SDS011;4706;41.844;26.082;2023-06-26T03:35:32;11.38;;;6.65;;
9334;SDS011;4706;41.844;26.082;2023-06-26T03:37:58;11.45;;;6.57;;
9334;SDS011;4706;41.844;26.082;2023-06-26T03:40:23;9.55;;;6.43;;
9334;SDS011;4706;41.844;26.082;2023-06-26T03:42:49;10.15;;;6.07;;
9334;SDS011;4706;41.844;26.082;2023-06-26T03:45:15;11.38;;;7.05;;
9334;SDS011;4706;41.844;26.082;2023-06-26T03:47:40;11.43;;;7.30;;
9334;SDS011;4706;41.844;26.082;2023-06-26T03:50:06;10.85;;;6.60;;
9334;SDS011;4706;41.844;26.082;2023-06-26T03:52:31;10.40;;;6.78;;
9334;SDS011;4706;41.844;26.082;2023-06-26T03:54:57;9.13;;;6.50;;
9334;SDS011;4706;41.844;26.082;2023-06-26T03:57:23;12.20;;;6.03;;
9334;SDS011;4706;41.844;26.082;2023-06-26T03:59:49;7.55;;;6.78;;
9334;SDS011;4706;41.844;26.082;2023-06-26T04:02:15;11.10;;;7.47;;
9334;SDS011;4706;41.844;26.082;2023-06-26T04:04:40;10.40;;;7.65;;
9334;SDS011;4706;41.844;26.082;2023-06-26T04:07:06;8.77;;;7.18;;
9334;SDS011;4706;41.844;26.082;2023-06-26T04:09:31;10.63;;;7.18;;
9334;SDS011;4706;41.844;26.082;2023-06-26T04:11:57;10.45;;;7.50;;
9334;SDS011;4706;41.844;26.082;2023-06-26T04:14:22;9.27;;;6.95;;
9334;SDS011;4706;41.844;26.082;2023-06-26T04:16:48;10.57;;;6.93;;
9334;SDS011;4706;41.844;26.082;2023-06-26T04:19:13;11.55;;;6.20;;
9334;SDS011;4706;41.844;26.082;2023-06-26T04:21:39;11.07;;;6.57;;
9334;SDS011;4706;41.844;26.082;2023-06-26T04:24:04;10.70;;;5.85;;
9334;SDS011;4706;41.844;26.082;2023-06-26T04:26:30;12.40;;;6.20;;
9334;SDS011;4706;41.844;26.082;2023-06-26T04:28:56;8.52;;;5.78;;
9334;SDS011;4706;41.844;26.082;2023-06-26T04:31:21;9.35;;;5.65;;
9334;SDS011;4706;41.844;26.082;2023-06-26T04:33:47;9.95;;;5.78;;
9334;SDS011;4706;41.844;26.082;2023-06-26T04:36:16;9.45;;;5.28;;
9334;SDS011;4706;41.844;26.082;2023-06-26T04:38:42;9.32;;;5.82;;
9334;SDS011;4706;41.844;26.082;2023-06-26T04:41:07;10.77;;;5.55;;
9334;SDS011;4706;41.844;26.082;2023-06-26T04:43:33;9.52;;;5.00;;
9334;SDS011;4706;41.844;26.082;2023-06-26T04:45:59;9.80;;;5.70;;
9334;SDS011;4706;41.844;26.082;2023-06-26T04:48:24;9.20;;;4.70;;
9334;SDS011;4706;41.844;26.082;2023-06-26T04:50:53;9.60;;;4.75;;
9334;SDS011;4706;41.844;26.082;2023-06-26T04:53:20;8.80;;;4.75;;
9334;SDS011;4706;41.844;26.082;2023-06-26T04:55:46;12.38;;;4.80;;
9334;SDS011;4706;41.844;26.082;2023-06-26T04:58:12;13.38;;;5.28;;
9334;SDS011;4706;41.844;26.082;2023-06-26T05:00:37;11.55;;;4.68;;
9334;SDS011;4706;41.844;26.082;2023-06-26T05:03:03;8.40;;;5.63;;
9334;SDS011;4706;41.844;26.082;2023-06-26T05:05:29;5.47;;;4.30;;
9334;SDS011;4706;41.844;26.082;2023-06-26T05:07:55;7.68;;;4.72;;
9334;SDS011;4706;41.844;26.082;2023-06-26T05:10:21;7.03;;;3.97;;
9334;SDS011;4706;41.844;26.082;2023-06-26T05:12:46;5.05;;;3.70;;
9334;SDS011;4706;41.844;26.082;2023-06-26T05:15:12;4.68;;;2.97;;
9334;SDS011;4706;41.844;26.082;2023-06-26T05:17:37;2.70;;;2.50;;
9334;SDS011;4706;41.844;26.082;2023-06-26T05:20:03;5.55;;;2.70;;
9334;SDS011;4706;41.844;26.082;2023-06-26T05:22:31;4.45;;;4.05;;
9334;SDS011;4706;41.844;26.082;2023-06-26T05:24:58;6.95;;;2.88;;
9334;SDS011;4706;41.844;26.082;2023-06-26T05:27:25;5.28;;;2.45;;
9334;SDS011;4706;41.844;26.082;2023-06-26T05:29:51;3.58;;;2.35;;
9334;SDS011;4706;41.844;26.082;2023-06-26T05:32:17;3.25;;;2.38;;
9334;SDS011;4706;41.844;26.082;2023-06-26T05:34:44;4.25;;;3.03;;
9334;SDS011;4706;41.844;26.082;2023-06-26T05:37:12;6.40;;;2.30;;
9334;SDS011;4706;41.844;26.082;2023-06-26T05:39:44;5.18;;;2.65;;
9334;SDS011;4706;41.844;26.082;2023-06-26T05:42:09;6.10;;;3.35;;
9334;SDS011;4706;41.844;26.082;2023-06-26T05:44:36;7.35;;;3.78;;
9334;SDS011;4706;41.844;26.082;2023-06-26T05:47:01;3.50;;;3.20;;
9334;SDS011;4706;41.844;26.082;2023-06-26T05:49:26;4.13;;;3.50;;
9334;SDS011;4706;41.844;26.082;2023-06-26T05:51:52;5.68;;;3.35;;
9334;SDS011;4706;41.844;26.082;2023-06-26T05:54:18;7.38;;;5.18;;
9334;SDS011;4706;41.844;26.082;2023-06-26T05:56:43;4.38;;;3.90;;
9334;SDS011;4706;41.844;26.082;2023-06-26T05:59:10;9.15;;;5.72;;
9334;SDS011;4706;41.844;26.082;2023-06-26T06:01:37;6.22;;;4.05;;
9334;SDS011;4706;41.844;26.082;2023-06-26T06:04:03;4.88;;;4.38;;
9334;SDS011;4706;41.844;26.082;2023-06-26T06:06:28;11.02;;;4.47;;
9334;SDS011;4706;41.844;26.082;2023-06-26T06:08:54;4.40;;;3.70;;
9334;SDS011;4706;41.844;26.082;2023-06-26T06:11:19;9.10;;;4.38;;
9334;SDS011;4706;41.844;26.082;2023-06-26T06:13:45;10.02;;;4.70;;
9334;SDS011;4706;41.844;26.082;2023-06-26T06:16:10;6.95;;;4.55;;
9334;SDS011;4706;41.844;26.082;2023-06-26T06:18:36;4.38;;;3.47;;
9334;SDS011;4706;41.844;26.082;2023-06-26T06:21:02;6.90;;;3.78;;
9334;SDS011;4706;41.844;26.082;2023-06-26T06:23:27;4.35;;;3.25;;
9334;SDS011;4706;41.844;26.082;2023-06-26T06:25:53;7.50;;;4.05;;
9334;SDS011;4706;41.844;26.082;2023-06-26T06:28:18;6.60;;;4.07;;
9334;SDS011;4706;41.844;26.082;2023-06-26T06:30:44;8.18;;;3.55;;
9334;SDS011;4706;41.844;26.082;2023-06-26T06:33:12;5.78;;;4.25;;
9334;SDS011;4706;41.844;26.082;2023-06-26T06:35:38;9.40;;;4.30;;
9334;SDS011;4706;41.844;26.082;2023-06-26T06:38:03;4.03;;;3.58;;
9334;SDS011;4706;41.844;26.082;2023-06-26T06:40:29;8.15;;;3.72;;
9334;SDS011;4706;41.844;26.082;2023-06-26T06:42:55;4.15;;;3.38;;
9334;SDS011;4706;41.844;26.082;2023-06-26T06:45:20;5.20;;;2.90;;
9334;SDS011;4706;41.844;26.082;2023-06-26T06:47:46;7.60;;;3.55;;
9334;SDS011;4706;41.844;26.082;2023-06-26T06:50:11;7.40;;;3.08;;
9334;SDS011;4706;41.844;26.082;2023-06-26T06:52:38;7.53;;;2.80;;
9334;SDS011;4706;41.844;26.082;2023-06-26T06:55:05;7.20;;;3.00;;
9334;SDS011;4706;41.844;26.082;2023-06-26T06:57:36;2.90;;;2.63;;
9334;SDS011;4706;41.844;26.082;2023-06-26T07:00:11;28.65;;;5.88;;
9334;SDS011;4706;41.844;26.082;2023-06-26T07:02:39;5.22;;;2.70;;
9334;SDS011;4706;41.844;26.082;2023-06-26T07:05:07;2.50;;;2.30;;
9334;SDS011;4706;41.844;26.082;2023-06-26T07:07:34;2.80;;;2.60;;
9334;SDS011;4706;41.844;26.082;2023-06-26T07:10:02;3.47;;;2.75;;
9334;SDS011;4706;41.844;26.082;2023-06-26T07:12:29;7.70;;;3.08;;
9334;SDS011;4706;41.844;26.082;2023-06-26T07:14:55;2.78;;;2.58;;
9334;SDS011;4706;41.844;26.082;2023-06-26T07:17:21;4.75;;;2.88;;
9334;SDS011;4706;41.844;26.082;2023-06-26T07:19:47;3.67;;;2.70;;
9334;SDS011;4706;41.844;26.082;2023-06-26T07:22:14;5.97;;;4.03;;
9334;SDS011;4706;41.844;26.082;2023-06-26T07:24:40;3.03;;;2.50;;
9334;SDS011;4706;41.844;26.082;2023-06-26T07:27:05;6.97;;;3.53;;
9334;SDS011;4706;41.844;26.082;2023-06-26T07:29:31;5.93;;;2.55;;
9334;SDS011;4706;41.844;26.082;2023-06-26T07:31:57;2.17;;;1.98;;
9334;SDS011;4706;41.844;26.082;2023-06-26T07:34:22;2.97;;;1.88;;
9334;SDS011;4706;41.844;26.082;2023-06-26T07:36:48;2.72;;;2.03;;
9334;SDS011;4706;41.844;26.082;2023-06-26T07:39:13;3.88;;;2.05;;
9334;SDS011;4706;41.844;26.082;2023-06-26T07:41:39;2.45;;;2.00;;
9334;SDS011;4706;41.844;26.082;2023-06-26T07:44:04;2.00;;;1.75;;
9334;SDS011;4706;41.844;26.082;2023-06-26T07:46:30;2.58;;;1.95;;
9334;SDS011;4706;41.844;26.082;2023-06-26T07:48:55;1.70;;;1.40;;
9334;SDS011;4706;41.844;26.082;2023-06-26T07:51:21;1.73;;;1.63;;
9334;SDS011;4706;41.844;26.082;2023-06-26T07:53:47;1.63;;;1.40;;
9334;SDS011;4706;41.844;26.082;2023-06-26T07:56:12;4.07;;;2.20;;
9334;SDS011;4706;41.844;26.082;2023-06-26T07:58:38;3.22;;;1.65;;
9334;SDS011;4706;41.844;26.082;2023-06-26T08:01:04;2.83;;;1.60;;
9334;SDS011;4706;41.844;26.082;2023-06-26T08:03:29;1.88;;;1.33;;
9334;SDS011;4706;41.844;26.082;2023-06-26T08:05:55;2.97;;;1.63;;
9334;SDS011;4706;41.844;26.082;2023-06-26T08:08:20;5.82;;;2.50;;
9334;SDS011;4706;41.844;26.082;2023-06-26T08:10:46;3.67;;;2.50;;
9334;SDS011;4706;41.844;26.082;2023-06-26T08:13:11;1.95;;;1.45;;
9334;SDS011;4706;41.844;26.082;2023-06-26T08:15:37;1.85;;;1.70;;
9334;SDS011;4706;41.844;26.082;2023-06-26T08:18:03;1.63;;;1.52;;
9334;SDS011;4706;41.844;26.082;2023-06-26T08:20:28;4.38;;;2.80;;
9334;SDS011;4706;41.844;26.082;2023-06-26T08:22:54;2.60;;;1.70;;
9334;SDS011;4706;41.844;26.082;2023-06-26T08:25:20;2.60;;;1.77;;
9334;SDS011;4706;41.844;26.082;2023-06-26T08:27:46;2.88;;;2.30;;
9334;SDS011;4706;41.844;26.082;2023-06-26T08:30:11;3.58;;;3.22;;
9334;SDS011;4706;41.844;26.082;2023-06-26T08:32:38;7.60;;;4.55;;
9334;SDS011;4706;41.844;26.082;2023-06-26T08:35:04;2.97;;;1.75;;
9334;SDS011;4706;41.844;26.082;2023-06-26T08:37:30;2.85;;;2.03;;
9334;SDS011;4706;41.844;26.082;2023-06-26T08:39:58;1.90;;;1.80;;
9334;SDS011;4706;41.844;26.082;2023-06-26T08:42:25;8.55;;;2.58;;
9334;SDS011;4706;41.844;26.082;2023-06-26T08:44:50;4.25;;;2.30;;
9334;SDS011;4706;41.844;26.082;2023-06-26T08:47:16;3.88;;;2.13;;
9334;SDS011;4706;41.844;26.082;2023-06-26T08:52:21;6.28;;;2.33;;
9334;SDS011;4706;41.844;26.082;2023-06-26T08:54:51;2.20;;;2.00;;
9334;SDS011;4706;41.844;26.082;2023-06-26T08:57:21;5.13;;;2.38;;
9334;SDS011;4706;41.844;26.082;2023-06-26T08:59:48;3.47;;;2.33;;
9334;SDS011;4706;41.844;26.082;2023-06-26T09:02:14;2.60;;;2.40;;
9334;SDS011;4706;41.844;26.082;2023-06-26T09:04:40;2.63;;;2.10;;
9334;SDS011;4706;41.844;26.082;2023-06-26T09:07:06;2.53;;;2.33;;
9334;SDS011;4706;41.844;26.082;2023-06-26T09:09:32;5.28;;;3.97;;
9334;SDS011;4706;41.844;26.082;2023-06-26T09:11:58;3.47;;;2.80;;
9334;SDS011;4706;41.844;26.082;2023-06-26T09:14:24;3.15;;;2.15;;
9334;SDS011;4706;41.844;26.082;2023-06-26T09:16:49;2.58;;;2.30;;
9334;SDS011;4706;41.844;26.082;2023-06-26T09:19:15;3.50;;;3.05;;
9334;SDS011;4706;41.844;26.082;2023-06-26T09:21:41;3.72;;;2.20;;
9334;SDS011;4706;41.844;26.082;2023-06-26T09:24:08;3.60;;;2.28;;
9334;SDS011;4706;41.844;26.082;2023-06-26T09:26:38;3.42;;;2.50;;
9334;SDS011;4706;41.844;26.082;2023-06-26T09:29:05;2.33;;;2.10;;
9334;SDS011;4706;41.844;26.082;2023-06-26T09:31:32;3.45;;;2.58;;
9334;SDS011;4706;41.844;26.082;2023-06-26T09:33:59;2.60;;;2.38;;
9334;SDS011;4706;41.844;26.082;2023-06-26T09:36:27;2.53;;;2.33;;
9334;SDS011;4706;41.844;26.082;2023-06-26T09:38:53;3.65;;;2.30;;
9334;SDS011;4706;41.844;26.082;2023-06-26T09:41:19;2.80;;;2.60;;
9334;SDS011;4706;41.844;26.082;2023-06-26T09:43:49;2.50;;;2.30;;
9334;SDS011;4706;41.844;26.082;2023-06-26T09:46:25;2.72;;;2.40;;
9334;SDS011;4706;41.844;26.082;2023-06-26T09:49:01;2.72;;;2.50;;
9334;SDS011;4706;41.844;26.082;2023-06-26T09:51:35;3.40;;;3.10;;
9334;SDS011;4706;41.844;26.082;2023-06-26T09:54:01;2.53;;;2.33;;
9334;SDS011;4706;41.844;26.082;2023-06-26T09:56:28;4.05;;;2.80;;
9334;SDS011;4706;41.844;26.082;2023-06-26T09:58:55;3.40;;;3.00;;
9334;SDS011;4706;41.844;26.082;2023-06-26T10:01:22;2.65;;;2.22;;
9334;SDS011;4706;41.844;26.082;2023-06-26T10:03:48;6.97;;;4.07;;
9334;SDS011;4706;41.844;26.082;2023-06-26T10:06:14;5.38;;;4.88;;
9334;SDS011;4706;41.844;26.082;2023-06-26T10:08:42;5.43;;;2.58;;
9334;SDS011;4706;41.844;26.082;2023-06-26T10:11:09;4.18;;;2.75;;
9334;SDS011;4706;41.844;26.082;2023-06-26T10:13:42;6.30;;;2.75;;
9334;SDS011;4706;41.844;26.082;2023-06-26T10:16:12;3.63;;;2.20;;
9334;SDS011;4706;41.844;26.082;2023-06-26T10:18:43;5.07;;;2.90;;
9334;SDS011;4706;41.844;26.082;2023-06-26T10:21:09;4.80;;;3.17;;
9334;SDS011;4706;41.844;26.082;2023-06-26T10:23:38;6.18;;;2.92;;
9334;SDS011;4706;41.844;26.082;2023-06-26T10:26:06;5.55;;;2.95;;
9334;SDS011;4706;41.844;26.082;2023-06-26T10:28:33;3.00;;;2.72;;
9334;SDS011;4706;41.844;26.082;2023-06-26T10:31:01;3.10;;;2.63;;
9334;SDS011;4706;41.844;26.082;2023-06-26T10:33:29;3.63;;;3.03;;
9334;SDS011;4706;41.844;26.082;2023-06-26T10:36:11;4.60;;;3.00;;
9334;SDS011;4706;41.844;26.082;2023-06-26T10:38:52;4.32;;;2.80;;
9334;SDS011;4706;41.844;26.082;2023-06-26T10:41:20;3.75;;;2.95;;
9334;SDS011;4706;41.844;26.082;2023-06-26T10:46:34;5.95;;;2.80;;
9334;SDS011;4706;41.844;26.082;2023-06-26T10:49:24;3.05;;;2.75;;
9334;SDS011;4706;41.844;26.082;2023-06-26T10:51:51;3.95;;;2.42;;
9334;SDS011;4706;41.844;26.082;2023-06-26T10:54:17;3.05;;;2.45;;
9334;SDS011;4706;41.844;26.082;2023-06-26T10:56:48;4.65;;;3.75;;
9334;SDS011;4706;41.844;26.082;2023-06-26T10:59:18;2.90;;;2.60;;
9334;SDS011;4706;41.844;26.082;2023-06-26T11:02:04;2.90;;;2.50;;
9334;SDS011;4706;41.844;26.082;2023-06-26T11:07:20;2.50;;;2.30;;
9334;SDS011;4706;41.844;26.082;2023-06-26T11:10:00;6.78;;;2.83;;
9334;SDS011;4706;41.844;26.082;2023-06-26T11:12:38;2.53;;;2.33;;
9334;SDS011;4706;41.844;26.082;2023-06-26T11:15:13;4.57;;;2.53;;
9334;SDS011;4706;41.844;26.082;2023-06-26T11:17:40;3.72;;;2.80;;
9334;SDS011;4706;41.844;26.082;2023-06-26T11:20:08;3.10;;;2.67;;
9334;SDS011;4706;41.844;26.082;2023-06-26T11:22:35;2.58;;;2.38;;
9334;SDS011;4706;41.844;26.082;2023-06-26T11:25:02;2.50;;;2.30;;
9334;SDS011;4706;41.844;26.082;2023-06-26T11:27:32;3.25;;;2.90;;
9334;SDS011;4706;41.844;26.082;2023-06-26T11:30:08;4.50;;;2.25;;
9334;SDS011;4706;41.844;26.082;2023-06-26T11:32:38;2.90;;;2.60;;
9334;SDS011;4706;41.844;26.082;2023-06-26T11:35:04;2.80;;;2.60;;
9334;SDS011;4706;41.844;26.082;2023-06-26T11:37:31;5.50;;;2.90;;
9334;SDS011;4706;41.844;26.082;2023-06-26T11:39:57;2.45;;;2.25;;
9334;SDS011;4706;41.844;26.082;2023-06-26T11:42:23;2.47;;;2.08;;
9334;SDS011;4706;41.844;26.082;2023-06-26T11:44:50;4.85;;;2.55;;
9334;SDS011;4706;41.844;26.082;2023-06-26T11:47:17;3.22;;;2.42;;
9334;SDS011;4706;41.844;26.082;2023-06-26T11:49:44;3.60;;;2.20;;
9334;SDS011;4706;41.844;26.082;2023-06-26T11:52:11;3.35;;;2.10;;
9334;SDS011;4706;41.844;26.082;2023-06-26T11:54:36;4.15;;;2.40;;
9334;SDS011;4706;41.844;26.082;2023-06-26T11:57:02;3.53;;;2.90;;
9334;SDS011;4706;41.844;26.082;2023-06-26T11:59:33;2.72;;;2.30;;
9334;SDS011;4706;41.844;26.082;2023-06-26T12:02:06;2.38;;;2.10;;
9334;SDS011;4706;41.844;26.082;2023-06-26T12:04:31;2.70;;;2.50;;
9334;SDS011;4706;41.844;26.082;2023-06-26T12:06:59;3.25;;;2.13;;
9334;SDS011;4706;41.844;26.082;2023-06-26T12:09:25;3.80;;;2.38;;
9334;SDS011;4706;41.844;26.082;2023-06-26T12:11:53;3.92;;;2.70;;
9334;SDS011;4706;41.844;26.082;2023-06-26T12:14:20;3.30;;;2.72;;
9334;SDS011;4706;41.844;26.082;2023-06-26T12:16:47;3.00;;;2.53;;
9334;SDS011;4706;41.844;26.082;2023-06-26T12:19:13;3.80;;;2.50;;
9334;SDS011;4706;41.844;26.082;2023-06-26T12:24:16;2.70;;;2.50;;
9334;SDS011;4706;41.844;26.082;2023-06-26T12:26:43;2.80;;;1.98;;
9334;SDS011;4706;41.844;26.082;2023-06-26T12:29:19;6.63;;;4.10;;
9334;SDS011;4706;41.844;26.082;2023-06-26T12:31:48;2.47;;;2.28;;
9334;SDS011;4706;41.844;26.082;2023-06-26T12:34:18;5.05;;;2.50;;
9334;SDS011;4706;41.844;26.082;2023-06-26T12:36:46;4.53;;;2.60;;
9334;SDS011;4706;41.844;26.082;2023-06-26T12:39:15;2.60;;;2.40;;
9334;SDS011;4706;41.844;26.082;2023-06-26T12:44:32;3.42;;;2.58;;
9334;SDS011;4706;41.844;26.082;2023-06-26T12:47:05;3.20;;;2.42;;
9334;SDS011;4706;41.844;26.082;2023-06-26T12:49:52;5.70;;;2.33;;
9334;SDS011;4706;41.844;26.082;2023-06-26T12:52:31;2.92;;;2.38;;
9334;SDS011;4706;41.844;26.082;2023-06-26T12:54:57;4.55;;;2.38;;
9334;SDS011;4706;41.844;26.082;2023-06-26T12:57:22;2.97;;;2.25;;
9334;SDS011;4706;41.844;26.082;2023-06-26T12:59:48;2.72;;;2.50;;
9334;SDS011;4706;41.844;26.082;2023-06-26T13:02:14;3.17;;;2.60;;
9334;SDS011;4706;41.844;26.082;2023-06-26T13:04:40;6.22;;;3.08;;
9334;SDS011;4706;41.844;26.082;2023-06-26T13:07:06;5.35;;;3.05;;
9334;SDS011;4706;41.844;26.082;2023-06-26T13:09:33;3.38;;;2.22;;
9334;SDS011;4706;41.844;26.082;2023-06-26T13:11:59;3.72;;;2.58;;
9334;SDS011;4706;41.844;26.082;2023-06-26T13:14:25;3.38;;;2.47;;
9334;SDS011;4706;41.844;26.082;2023-06-26T13:16:51;2.80;;;2.30;;
9334;SDS011;4706;41.844;26.082;2023-06-26T13:19:17;4.70;;;2.05;;
9334;SDS011;4706;41.844;26.082;2023-06-26T13:21:43;3.45;;;2.20;;
9334;SDS011;4706;41.844;26.082;2023-06-26T13:24:09;2.28;;;2.03;;
9334;SDS011;4706;41.844;26.082;2023-06-26T13:26:35;4.03;;;2.33;;
9334;SDS011;4706;41.844;26.082;2023-06-26T13:29:01;4.00;;;2.05;;
9334;SDS011;4706;41.844;26.082;2023-06-26T13:31:26;2.55;;;2.30;;
9334;SDS011;4706;41.844;26.082;2023-06-26T13:33:52;2.38;;;2.13;;
9334;SDS011;4706;41.844;26.082;2023-06-26T13:36:18;3.38;;;2.33;;
9334;SDS011;4706;41.844;26.082;2023-06-26T13:38:44;2.67;;;2.10;;
9334;SDS011;4706;41.844;26.082;2023-06-26T13:41:10;3.42;;;2.15;;
9334;SDS011;4706;41.844;26.082;2023-06-26T13:43:36;4.80;;;2.60;;
9334;SDS011;4706;41.844;26.082;2023-06-26T13:46:02;2.58;;;2.38;;
9334;SDS011;4706;41.844;26.082;2023-06-26T13:48:28;3.35;;;2.63;;
9334;SDS011;4706;41.844;26.082;2023-06-26T13:50:54;3.25;;;2.38;;
9334;SDS011;4706;41.844;26.082;2023-06-26T13:53:20;3.10;;;2.20;;
9334;SDS011;4706;41.844;26.082;2023-06-26T13:55:46;4.57;;;2.45;;
9334;SDS011;4706;41.844;26.082;2023-06-26T13:58:11;2.83;;;2.42;;
9334;SDS011;4706;41.844;26.082;2023-06-26T14:00:38;2.60;;;2.40;;
9334;SDS011;4706;41.844;26.082;2023-06-26T14:03:05;4.70;;;2.50;;
9334;SDS011;4706;41.844;26.082;2023-06-26T14:05:34;3.28;;;2.40;;
9334;SDS011;4706;41.844;26.082;2023-06-26T14:08:02;6.13;;;2.97;;
9334;SDS011;4706;41.844;26.082;2023-06-26T14:10:29;3.85;;;2.38;;
9334;SDS011;4706;41.844;26.082;2023-06-26T14:12:56;3.80;;;2.33;;
9334;SDS011;4706;41.844;26.082;2023-06-26T14:15:21;5.47;;;4.97;;
9334;SDS011;4706;41.844;26.082;2023-06-26T14:17:47;5.30;;;2.88;;
9334;SDS011;4706;41.844;26.082;2023-06-26T14:20:15;4.70;;;3.55;;
9334;SDS011;4706;41.844;26.082;2023-06-26T14:22:42;3.35;;;2.47;;
9334;SDS011;4706;41.844;26.082;2023-06-26T14:25:09;2.50;;;2.30;;
9334;SDS011;4706;41.844;26.082;2023-06-26T14:27:35;2.63;;;2.42;;
9334;SDS011;4706;41.844;26.082;2023-06-26T14:30:02;4.60;;;2.65;;
9334;SDS011;4706;41.844;26.082;2023-06-26T14:32:29;3.00;;;2.65;;
9334;SDS011;4706;41.844;26.082;2023-06-26T14:34:55;5.30;;;2.70;;
9334;SDS011;4706;41.844;26.082;2023-06-26T14:37:21;3.70;;;3.15;;
9334;SDS011;4706;41.844;26.082;2023-06-26T14:39:47;2.65;;;2.20;;
9334;SDS011;4706;41.844;26.082;2023-06-26T14:42:12;5.32;;;2.50;;
9334;SDS011;4706;41.844;26.082;2023-06-26T14:44:38;3.38;;;2.42;;
9334;SDS011;4706;41.844;26.082;2023-06-26T14:47:04;4.18;;;2.35;;
9334;SDS011;4706;41.844;26.082;2023-06-26T14:49:30;9.35;;;3.03;;
9334;SDS011;4706;41.844;26.082;2023-06-26T14:51:56;3.00;;;2.40;;
9334;SDS011;4706;41.844;26.082;2023-06-26T14:54:22;3.15;;;2.22;;
9334;SDS011;4706;41.844;26.082;2023-06-26T14:56:47;3.80;;;2.40;;
9334;SDS011;4706;41.844;26.082;2023-06-26T14:59:13;2.75;;;2.55;;
9334;SDS011;4706;41.844;26.082;2023-06-26T15:01:39;4.45;;;2.40;;
9334;SDS011;4706;41.844;26.082;2023-06-26T15:04:05;3.20;;;2.63;;
9334;SDS011;4706;41.844;26.082;2023-06-26T15:06:31;2.95;;;2.28;;
9334;SDS011;4706;41.844;26.082;2023-06-26T15:08:57;7.05;;;3.70;;
9334;SDS011;4706;41.844;26.082;2023-06-26T15:11:23;4.78;;;2.30;;
9334;SDS011;4706;41.844;26.082;2023-06-26T15:13:49;3.65;;;2.50;;
9334;SDS011;4706;41.844;26.082;2023-06-26T15:16:14;3.10;;;2.75;;